• LFSB

    METAR de LFSB (émis le 2019/11/14 00:00 UTC):
    LFSB 140000Z AUTO 18007KT 9999 NCD 01/00 Q1004 NOSIG

    TAF de LFSB (émis le 2019/11/13 19:45 UTC):
    AMD LFSB 131838Z 1319/1418 15005KT 9999 FEW020 BKN035 BECMG 1414/1416 35006KT
  • LFSX

    METAR de LFSX (émis le 2019/11/14 00:00 UTC):
    LFSX 140000Z AUTO 14008KT CAVOK 02/02 Q1002

    TAF de LFSX (émis le 2019/11/13 18:48 UTC):
    LFSX 131830Z 1318/1415 CNL
  • LFSD

    METAR de LFSD (émis le 2019/11/14 00:00 UTC):
    LFSD 140000Z AUTO 14004KT CAVOK 01/01 Q1001

    TAF de LFSD (émis le 2015/06/01 00:11 UTC):
    LFSD 010600Z 0100/0124 CNL
  • LFGJ

    METAR de LFGJ (émis le 2019/11/14 00:00 UTC):
    LFGJ 140000Z AUTO 15008KT CAVOK 02/01 Q1002

    TAF COURT de LFGJ
    (émis le 2019/11/13 18:06 UTC):
    TAF TAF LFGJ 131801Z 1318/1324 CNL
  • LFJL

    METAR de LFJL (émis le 2019/11/14 00:00 UTC):
    LFJL 140000Z AUTO 16010KT 9999 FEW043 04/03 Q1001 NOSIG

    TAF de LFJL (émis le 2019/11/13 18:42 UTC):
    LFJL 131700Z 1318/1418 21012KT 9999 BKN013 TEMPO 1318/1323 3000 -RA OVC005 BECMG 1402/1405 12012KT CAVOK BECMG 1409/1412 BKN015 PROB40 TEMPO 1409/1412 4000 -RA BKN010 TEMPO 1414/1418 RA
  • LFST

    METAR de LFST (émis le 2019/11/14 00:00 UTC):
    LFST 140000Z AUTO VRB01KT CAVOK 03/02 Q1003 TEMPO 3000 BR BKN005

    TAF de LFST (émis le 2019/11/13 22:13 UTC):
    AMD LFST 132210Z 1322/1418 18007KT CAVOK TEMPO 1400/1409 3000 BR BKN005 PROB40 TEMPO 1402/1407 0300 FZFG VV/// BECMG 1412/1414 36007KT